Time;durP1;ratioP1;P1;durP2;ratioP2;P2;SDS_P1;SDS_P2;PMS_P1;PMS_P2;Temp;Humidity;BMP_temperature;BMP_pressure;BME280_temperature;BME280_humidity;BME280_pressure;Samples;Min_cycle;Max_cycle;Signal;HPM_P1;HPM_P2
2022/10/08 00:01:31;;;;;;;;;;;13.50;99.90;;;;;;5038734;28;19917;-69
2022/10/08 00:04:00;;;;;;;;;;;13.50;99.90;;;;;;5044397;28;20004;-69
2022/10/08 00:06:27;;;;;;;;;;;13.50;99.90;;;;;;5040296;28;19927;-69
2022/10/08 00:08:55;;;;;;;;;;;13.50;99.90;;;;;;5040566;28;20007;-69
2022/10/08 00:11:25;;;;;;;;;;;13.40;99.90;;;;;;5040432;28;19921;-69
2022/10/08 00:13:52;;;;;;;;;;;13.50;99.90;;;;;;5040012;28;20275;-68
2022/10/08 00:16:20;;;;;;;;;;;13.50;99.90;;;;;;5040885;28;20075;-69
2022/10/08 00:18:47;;;;;;;;;;;13.50;99.90;;;;;;5042855;28;19997;-70
2022/10/08 00:21:17;;;;;;;;;;;13.60;99.90;;;;;;5040521;28;19923;-69
2022/10/08 00:23:43;;;;;;;;;;;13.60;99.90;;;;;;5039607;28;19927;-70
2022/10/08 00:26:10;;;;;;;;;;;13.70;99.90;;;;;;5041826;28;19905;-70
2022/10/08 00:28:36;;;;;;;;;;;13.70;99.90;;;;;;5030161;28;19912;-69
2022/10/08 00:31:06;;;;;;;;;;;13.80;99.90;;;;;;5040938;28;20360;-69
2022/10/08 00:33:35;;;;;;;;;;;13.80;99.90;;;;;;5033907;28;19909;-70
2022/10/08 00:36:02;;;;;;;;;;;13.80;99.90;;;;;;5041522;28;19908;-70
2022/10/08 00:38:28;;;;;;;;;;;13.80;99.90;;;;;;5043521;28;19909;-70
2022/10/08 00:40:53;;;;;;;;;;;13.70;99.90;;;;;;5042891;28;19982;-69
2022/10/08 00:43:36;;;;;;;;;;;13.70;99.90;;;;;;5041235;28;19951;-70
2022/10/08 00:46:03;;;;;;;;;;;13.70;99.90;;;;;;5040425;28;19982;-68
2022/10/08 00:48:28;;;;;;;;;;;13.70;99.90;;;;;;5052779;28;19936;-69
2022/10/08 00:50:54;;;;;;;;;;;13.60;99.90;;;;;;5052620;28;19988;-70
2022/10/08 00:53:20;;;;;;;;;;;13.60;99.90;;;;;;5053210;28;19905;-71
2022/10/08 00:55:45;;;;;;;;;;;13.50;99.90;;;;;;5036945;28;20255;-70
2022/10/08 00:58:12;;;;;;;;;;;13.50;99.90;;;;;;5032486;28;19963;-70
2022/10/08 01:00:38;;;;;;;;;;;13.40;99.90;;;;;;5032975;28;20274;-69
2022/10/08 01:03:05;;;;;;;;;;;13.30;99.90;;;;;;5031796;28;19905;-69
2022/10/08 01:05:45;;;;;;;;;;;13.30;99.90;;;;;;5035556;28;19914;-69
2022/10/08 01:08:26;;;;;;;;;;;13.30;99.90;;;;;;5039379;28;19908;-70
2022/10/08 01:11:10;;;;;;;;;;;13.20;99.90;;;;;;5036820;28;19973;-70
2022/10/08 01:13:41;;;;;;;;;;;13.20;99.90;;;;;;5040022;28;19909;-68
2022/10/08 01:16:15;;;;;;;;;;;13.20;99.90;;;;;;5040919;28;19905;-70
2022/10/08 01:18:43;;;;;;;;;;;13.10;99.90;;;;;;5042159;28;20341;-70
2022/10/08 01:21:26;;;;;;;;;;;13.10;99.90;;;;;;5036504;28;19917;-69
2022/10/08 01:24:06;;;;;;;;;;;13.10;99.90;;;;;;5048894;28;20301;-70
2022/10/08 01:26:37;;;;;;;;;;;13.00;99.90;;;;;;5043314;28;19908;-71
2022/10/08 01:29:12;;;;;;;;;;;13.00;99.90;;;;;;5036483;28;19913;-69
2022/10/08 01:31:43;;;;;;;;;;;13.00;99.90;;;;;;5035688;28;19936;-69
2022/10/08 01:34:12;;;;;;;;;;;13.00;99.90;;;;;;5040052;28;19909;-70
2022/10/08 01:36:42;;;;;;;;;;;13.00;99.90;;;;;;5039777;28;19963;-69
2022/10/08 01:39:16;;;;;;;;;;;12.90;99.90;;;;;;5037872;28;19962;-70
2022/10/08 01:41:45;;;;;;;;;;;12.90;99.90;;;;;;5038433;28;19917;-69
2022/10/08 01:44:18;;;;;;;;;;;13.00;99.90;;;;;;5042757;28;19951;-69
2022/10/08 01:46:45;;;;;;;;;;;13.00;99.90;;;;;;5042081;28;19909;-70
2022/10/08 01:49:12;;;;;;;;;;;13.00;99.90;;;;;;5040870;28;21172;-69
2022/10/08 01:51:43;;;;;;;;;;;13.00;99.90;;;;;;5040442;28;19904;-69
2022/10/08 01:54:10;;;;;;;;;;;13.10;99.90;;;;;;5041349;28;19908;-70
2022/10/08 01:56:38;;;;;;;;;;;13.10;99.90;;;;;;5033685;28;19923;-69
2022/10/08 01:59:08;;;;;;;;;;;13.20;99.90;;;;;;5041885;28;19909;-69
2022/10/08 02:01:43;;;;;;;;;;;13.30;99.90;;;;;;5039031;28;19919;-69
2022/10/08 02:06:55;;;;;;;;;;;13.50;99.90;;;;;;5042181;28;19975;-68
2022/10/08 02:09:31;;;;;;;;;;;13.50;99.90;;;;;;5041145;28;20000;-69
2022/10/08 02:11:57;;;;;;;;;;;13.60;99.90;;;;;;5037675;28;19921;-69
2022/10/08 02:14:24;;;;;;;;;;;13.60;99.90;;;;;;5041936;28;19908;-69
2022/10/08 02:16:57;;;;;;;;;;;13.60;99.90;;;;;;5042108;28;19909;-70
2022/10/08 02:19:28;;;;;;;;;;;13.60;99.90;;;;;;5034430;28;19909;-69
2022/10/08 02:21:55;;;;;;;;;;;13.60;99.90;;;;;;5040746;28;19913;-69
2022/10/08 02:24:26;;;;;;;;;;;13.50;99.90;;;;;;5040977;28;20267;-68
2022/10/08 02:26:56;;;;;;;;;;;13.50;99.90;;;;;;5040296;28;19913;-69
2022/10/08 02:29:34;;;;;;;;;;;13.40;99.90;;;;;;5041623;28;19905;-70
2022/10/08 02:32:20;;;;;;;;;;;13.40;99.90;;;;;;5038681;28;19916;-69
2022/10/08 02:34:49;;;;;;;;;;;13.40;99.90;;;;;;5039972;28;19905;-69
2022/10/08 02:37:23;;;;;;;;;;;13.30;99.90;;;;;;5040230;28;20354;-69
2022/10/08 02:39:52;;;;;;;;;;;13.30;99.90;;;;;;5037358;28;19915;-70
2022/10/08 02:42:20;;;;;;;;;;;13.30;99.90;;;;;;5036817;28;20330;-70
2022/10/08 02:44:48;;;;;;;;;;;13.20;99.90;;;;;;5041711;28;19905;-69
2022/10/08 02:47:17;;;;;;;;;;;13.20;99.90;;;;;;5046520;28;19905;-70
2022/10/08 02:49:46;;;;;;;;;;;13.20;99.90;;;;;;5052560;28;20381;-69
2022/10/08 02:52:13;;;;;;;;;;;13.20;99.90;;;;;;5052592;28;19904;-70
2022/10/08 02:54:40;;;;;;;;;;;13.10;99.90;;;;;;5056220;28;19904;-70
2022/10/08 02:57:17;;;;;;;;;;;13.10;99.90;;;;;;5056070;28;20264;-70
2022/10/08 02:59:43;;;;;;;;;;;13.10;99.90;;;;;;5051715;28;20266;-70
2022/10/08 03:02:10;;;;;;;;;;;13.10;99.90;;;;;;5032515;28;19917;-70
2022/10/08 03:04:39;;;;;;;;;;;13.10;99.90;;;;;;5035619;28;20350;-70
2022/10/08 03:07:05;;;;;;;;;;;13.10;99.90;;;;;;5035519;28;19909;-69
2022/10/08 03:09:33;;;;;;;;;;;13.20;99.90;;;;;;5035973;28;20011;-69
2022/10/08 03:11:59;;;;;;;;;;;13.20;99.90;;;;;;5035775;28;20000;-69
2022/10/08 03:14:25;;;;;;;;;;;13.30;99.90;;;;;;5035850;28;20350;-69
2022/10/08 03:16:52;;;;;;;;;;;13.30;99.90;;;;;;5035724;28;19995;-70
2022/10/08 03:19:18;;;;;;;;;;;13.40;99.90;;;;;;5035529;28;19912;-70
2022/10/08 03:21:45;;;;;;;;;;;13.40;99.90;;;;;;5035615;28;19913;-70
2022/10/08 03:24:12;;;;;;;;;;;13.40;99.90;;;;;;5035671;28;19959;-70
2022/10/08 03:26:38;;;;;;;;;;;13.50;99.90;;;;;;5035377;28;20322;-70
2022/10/08 03:29:04;;;;;;;;;;;13.50;99.90;;;;;;5035703;28;19909;-70
2022/10/08 03:31:29;;;;;;;;;;;13.60;99.90;;;;;;5033409;28;19909;-70
2022/10/08 03:33:55;;;;;;;;;;;13.60;99.90;;;;;;5035502;28;20350;-69
2022/10/08 03:36:21;;;;;;;;;;;13.60;99.90;;;;;;5035255;28;19996;-69
2022/10/08 03:38:47;;;;;;;;;;;13.60;99.90;;;;;;5035457;28;20028;-69
2022/10/08 03:41:13;;;;;;;;;;;13.60;99.90;;;;;;5035327;28;19936;-70
2022/10/08 03:43:38;;;;;;;;;;;13.60;99.90;;;;;;5035270;28;20354;-69
2022/10/08 03:46:04;;;;;;;;;;;13.60;99.90;;;;;;5035007;28;19912;-69
2022/10/08 03:48:30;;;;;;;;;;;13.60;99.90;;;;;;5035369;28;19912;-70
2022/10/08 03:51:15;;;;;;;;;;;13.70;99.90;;;;;;5034988;28;19909;-70
2022/10/08 03:53:41;;;;;;;;;;;13.70;99.90;;;;;;5034745;28;19978;-69
2022/10/08 03:56:09;;;;;;;;;;;13.70;99.90;;;;;;5033654;28;20347;-69
2022/10/08 03:58:35;;;;;;;;;;;13.70;99.90;;;;;;5034797;28;19905;-70
2022/10/08 04:01:02;;;;;;;;;;;13.70;99.90;;;;;;5034523;28;19935;-70
2022/10/08 04:03:28;;;;;;;;;;;13.70;99.90;;;;;;5034518;28;19956;-69
2022/10/08 04:05:54;;;;;;;;;;;13.70;99.90;;;;;;5034724;28;19905;-68
2022/10/08 04:08:20;;;;;;;;;;;13.70;99.90;;;;;;5034484;28;20239;-70
2022/10/08 04:10:45;;;;;;;;;;;13.60;99.90;;;;;;5034658;28;20369;-70
2022/10/08 04:13:10;;;;;;;;;;;13.60;99.90;;;;;;5034120;28;19975;-70
2022/10/08 04:15:36;;;;;;;;;;;13.60;99.90;;;;;;5034295;28;20004;-70
2022/10/08 04:18:01;;;;;;;;;;;13.60;99.90;;;;;;5034852;28;20266;-70
2022/10/08 04:20:27;;;;;;;;;;;13.60;99.90;;;;;;5034381;28;19912;-70
2022/10/08 04:22:52;;;;;;;;;;;13.50;99.90;;;;;;5033988;28;19924;-70
2022/10/08 04:25:18;;;;;;;;;;;13.50;99.90;;;;;;5034230;28;19911;-70
2022/10/08 04:27:47;;;;;;;;;;;13.50;99.90;;;;;;5034428;28;19905;-71
2022/10/08 04:30:13;;;;;;;;;;;13.50;99.90;;;;;;5034317;28;19916;-70
2022/10/08 04:32:39;;;;;;;;;;;13.50;99.90;;;;;;5031717;28;19909;-68
2022/10/08 04:35:04;;;;;;;;;;;13.40;99.90;;;;;;5034165;28;20366;-68
2022/10/08 04:37:30;;;;;;;;;;;13.40;99.90;;;;;;5034141;28;19958;-69
2022/10/08 04:39:55;;;;;;;;;;;13.40;99.90;;;;;;5033466;28;19987;-68
2022/10/08 04:42:21;;;;;;;;;;;13.40;99.90;;;;;;5034132;28;19917;-68
2022/10/08 04:44:46;;;;;;;;;;;13.30;99.90;;;;;;5033923;28;20287;-69
2022/10/08 04:47:12;;;;;;;;;;;13.30;99.90;;;;;;5049455;28;19949;-69
2022/10/08 04:49:37;;;;;;;;;;;13.30;99.90;;;;;;5033964;28;19913;-69
2022/10/08 04:52:03;;;;;;;;;;;13.30;99.90;;;;;;5033888;28;19909;-70
2022/10/08 04:54:28;;;;;;;;;;;13.20;99.90;;;;;;5033735;28;19905;-70
2022/10/08 04:56:54;;;;;;;;;;;13.20;99.90;;;;;;5033680;28;19905;-69
2022/10/08 04:59:19;;;;;;;;;;;13.20;99.90;;;;;;5033450;28;19951;-69
2022/10/08 05:01:44;;;;;;;;;;;13.20;99.90;;;;;;5033467;28;20350;-69
2022/10/08 05:04:10;;;;;;;;;;;13.20;99.90;;;;;;5033773;28;20313;-69
2022/10/08 05:06:35;;;;;;;;;;;13.20;99.90;;;;;;5033671;28;19912;-69
2022/10/08 05:09:03;;;;;;;;;;;13.20;99.90;;;;;;5033879;28;19909;-69
2022/10/08 05:11:29;;;;;;;;;;;13.10;99.90;;;;;;5033518;28;19917;-69
2022/10/08 05:13:56;;;;;;;;;;;13.10;99.90;;;;;;5033587;28;19931;-69
2022/10/08 05:16:22;;;;;;;;;;;13.10;99.90;;;;;;5032643;28;20613;-69
2022/10/08 05:18:49;;;;;;;;;;;13.10;99.90;;;;;;5033121;28;19914;-68
2022/10/08 05:21:16;;;;;;;;;;;13.10;99.90;;;;;;5033419;28;19908;-69
2022/10/08 05:23:42;;;;;;;;;;;13.10;99.90;;;;;;5033514;28;19920;-68
2022/10/08 05:26:10;;;;;;;;;;;13.10;99.90;;;;;;5033591;28;19905;-68
2022/10/08 05:28:36;;;;;;;;;;;13.20;99.90;;;;;;5032894;28;19912;-69
2022/10/08 05:31:01;;;;;;;;;;;13.20;99.90;;;;;;5035666;28;20337;-69
2022/10/08 05:33:27;;;;;;;;;;;13.10;99.90;;;;;;5030866;28;20000;-69
2022/10/08 05:35:52;;;;;;;;;;;13.10;99.90;;;;;;5033191;28;19916;-69
2022/10/08 05:38:18;;;;;;;;;;;13.20;99.90;;;;;;5033097;28;19912;-69
2022/10/08 05:40:43;;;;;;;;;;;13.10;99.90;;;;;;5033051;28;19912;-69
2022/10/08 05:43:09;;;;;;;;;;;13.10;99.90;;;;;;5033141;28;20274;-70
2022/10/08 05:45:34;;;;;;;;;;;13.10;99.90;;;;;;5033084;28;19951;-70
2022/10/08 05:47:59;;;;;;;;;;;13.20;99.90;;;;;;5031321;28;20366;-69
2022/10/08 05:50:25;;;;;;;;;;;13.10;99.90;;;;;;5032650;28;19905;-69
2022/10/08 05:52:50;;;;;;;;;;;13.20;99.90;;;;;;5032907;28;19905;-69
2022/10/08 05:55:16;;;;;;;;;;;13.10;99.90;;;;;;5032941;28;19979;-68
2022/10/08 05:57:41;;;;;;;;;;;13.20;99.90;;;;;;5033181;28;20045;-69
2022/10/08 06:00:07;;;;;;;;;;;13.20;99.90;;;;;;5032686;28;20065;-68
2022/10/08 06:02:32;;;;;;;;;;;13.20;99.90;;;;;;5032809;28;19921;-68
2022/10/08 06:04:58;;;;;;;;;;;13.20;99.90;;;;;;5030510;28;19909;-68
2022/10/08 06:07:23;;;;;;;;;;;13.20;99.90;;;;;;5032516;28;19912;-68
2022/10/08 06:09:51;;;;;;;;;;;13.30;99.90;;;;;;5032547;28;20000;-68
2022/10/08 06:12:16;;;;;;;;;;;13.30;99.90;;;;;;5032220;28;20367;-69
2022/10/08 06:14:42;;;;;;;;;;;13.30;99.90;;;;;;5032438;28;19931;-68
2022/10/08 06:17:07;;;;;;;;;;;13.30;99.90;;;;;;5032289;28;19916;-69
2022/10/08 06:19:34;;;;;;;;;;;13.40;99.90;;;;;;5031137;28;19916;-69
2022/10/08 06:21:59;;;;;;;;;;;13.40;99.90;;;;;;5032056;28;19913;-68
2022/10/08 06:24:24;;;;;;;;;;;13.50;99.90;;;;;;5032635;28;20412;-69
2022/10/08 06:26:50;;;;;;;;;;;13.40;99.90;;;;;;5032223;28;19912;-70
2022/10/08 06:29:16;;;;;;;;;;;13.40;99.90;;;;;;5036067;28;19905;-69
2022/10/08 06:31:42;;;;;;;;;;;13.40;99.90;;;;;;5036230;28;19905;-69
2022/10/08 06:34:08;;;;;;;;;;;13.40;99.90;;;;;;5036196;28;19909;-69
2022/10/08 06:36:34;;;;;;;;;;;13.50;99.90;;;;;;5034320;28;19978;-69
2022/10/08 06:39:00;;;;;;;;;;;13.50;99.90;;;;;;5036502;28;20339;-69
2022/10/08 06:41:29;;;;;;;;;;;13.50;99.90;;;;;;5034714;28;20340;-70
2022/10/08 06:43:54;;;;;;;;;;;13.50;99.90;;;;;;5036205;28;19931;-69
2022/10/08 06:46:20;;;;;;;;;;;13.60;99.90;;;;;;5036383;28;19999;-69
2022/10/08 06:48:45;;;;;;;;;;;13.70;99.90;;;;;;5035050;28;20342;-70
2022/10/08 06:51:12;;;;;;;;;;;13.90;99.90;;;;;;5034213;28;19913;-70
2022/10/08 06:53:38;;;;;;;;;;;14.00;99.90;;;;;;5035487;28;19916;-69
2022/10/08 06:56:05;;;;;;;;;;;14.20;99.90;;;;;;5035736;28;19909;-69
2022/10/08 06:58:31;;;;;;;;;;;14.40;99.90;;;;;;5035431;28;20299;-69
2022/10/08 07:01:22;;;;;;;;;;;14.50;99.90;;;;;;5035345;28;20014;-69
2022/10/08 07:03:51;;;;;;;;;;;14.70;99.90;;;;;;5033141;28;19913;-69
2022/10/08 07:06:17;;;;;;;;;;;14.80;99.90;;;;;;5035448;28;19916;-69
2022/10/08 07:08:43;;;;;;;;;;;14.90;99.90;;;;;;5035686;28;20278;-70
2022/10/08 07:11:10;;;;;;;;;;;14.90;99.90;;;;;;5034803;28;19995;-69
2022/10/08 07:13:36;;;;;;;;;;;14.80;99.90;;;;;;5035355;28;19909;-68
2022/10/08 07:16:05;;;;;;;;;;;14.80;99.90;;;;;;5035324;28;20317;-68
2022/10/08 07:18:32;;;;;;;;;;;14.60;99.90;;;;;;5035497;28;19928;-67
2022/10/08 07:20:58;;;;;;;;;;;14.50;99.90;;;;;;5035019;28;19909;-68
2022/10/08 07:23:23;;;;;;;;;;;14.40;99.90;;;;;;5028150;28;20750;-68
2022/10/08 07:26:04;;;;;;;;;;;14.30;99.90;;;;;;5035226;28;19905;-67
2022/10/08 07:28:31;;;;;;;;;;;14.20;99.90;;;;;;5035085;28;20000;-67
2022/10/08 07:31:01;;;;;;;;;;;14.20;99.90;;;;;;5034684;28;19905;-67
2022/10/08 07:33:27;;;;;;;;;;;14.10;99.90;;;;;;5034296;28;19909;-67
2022/10/08 07:35:53;;;;;;;;;;;14.00;99.90;;;;;;5034834;28;19966;-67
2022/10/08 07:38:18;;;;;;;;;;;13.90;99.90;;;;;;5034231;28;20343;-67
2022/10/08 07:40:45;;;;;;;;;;;13.90;99.90;;;;;;5034856;28;20000;-68
2022/10/08 07:43:11;;;;;;;;;;;13.90;99.90;;;;;;5034727;28;19913;-68
2022/10/08 07:45:42;;;;;;;;;;;14.00;99.90;;;;;;5032482;28;19919;-68
2022/10/08 07:48:08;;;;;;;;;;;14.10;99.90;;;;;;5034168;28;19909;-68
2022/10/08 07:50:33;;;;;;;;;;;14.20;99.90;;;;;;5033850;28;19917;-68
2022/10/08 07:52:58;;;;;;;;;;;14.30;99.90;;;;;;5034140;28;19931;-69
2022/10/08 07:55:24;;;;;;;;;;;14.30;99.90;;;;;;5034389;28;19905;-68
2022/10/08 07:57:49;;;;;;;;;;;14.40;99.90;;;;;;5033499;28;19909;-69
2022/10/08 08:00:15;;;;;;;;;;;14.40;99.90;;;;;;5034185;28;19916;-68
2022/10/08 08:02:40;;;;;;;;;;;14.50;99.90;;;;;;5034943;28;20010;-68
2022/10/08 08:05:06;;;;;;;;;;;14.80;99.90;;;;;;5034543;28;20059;-69
2022/10/08 08:07:31;;;;;;;;;;;15.10;99.90;;;;;;5034392;28;19912;-68
2022/10/08 08:09:57;;;;;;;;;;;15.20;99.90;;;;;;5033219;28;19909;-69
2022/10/08 08:12:23;;;;;;;;;;;15.40;99.90;;;;;;5034710;28;20255;-68
2022/10/08 08:14:48;;;;;;;;;;;15.60;99.90;;;;;;5033943;28;20015;-69
2022/10/08 08:17:13;;;;;;;;;;;15.70;99.90;;;;;;5032363;28;19918;-68
2022/10/08 08:19:39;;;;;;;;;;;15.90;99.90;;;;;;5032839;28;20294;-69
2022/10/08 08:22:05;;;;;;;;;;;16.40;99.90;;;;;;5034374;28;19920;-68
2022/10/08 08:24:31;;;;;;;;;;;16.80;99.90;;;;;;5033832;28;20016;-69
2022/10/08 08:26:56;;;;;;;;;;;17.00;99.90;;;;;;5033947;28;19913;-69
2022/10/08 08:29:22;;;;;;;;;;;17.60;99.90;;;;;;5034049;28;19909;-69
2022/10/08 08:31:48;;;;;;;;;;;18.60;99.90;;;;;;5033746;28;19909;-69
2022/10/08 08:34:18;;;;;;;;;;;19.80;99.00;;;;;;5033648;28;19976;-69
2022/10/08 08:36:44;;;;;;;;;;;20.40;97.20;;;;;;5033840;28;19940;-69
2022/10/08 08:39:29;;;;;;;;;;;20.10;96.90;;;;;;5033941;28;19931;-68
2022/10/08 08:42:16;;;;;;;;;;;20.20;97.50;;;;;;5033306;28;20015;-68
2022/10/08 08:44:43;;;;;;;;;;;20.90;96.90;;;;;;5033933;28;20413;-69
2022/10/08 08:47:23;;;;;;;;;;;21.30;94.90;;;;;;5033294;28;19909;-69
2022/10/08 08:49:53;;;;;;;;;;;21.50;94.70;;;;;;5033012;28;19947;-70
2022/10/08 08:52:21;;;;;;;;;;;21.20;94.30;;;;;;5033427;28;19916;-69
2022/10/08 08:54:52;;;;;;;;;;;20.70;94.80;;;;;;5033323;28;19905;-69
2022/10/08 08:57:36;;;;;;;;;;;20.00;94.80;;;;;;5033363;28;19919;-69
2022/10/08 09:00:10;;;;;;;;;;;19.50;96.10;;;;;;5033532;28;19974;-69
2022/10/08 09:02:39;;;;;;;;;;;19.90;95.80;;;;;;5032675;28;20362;-69
2022/10/08 09:05:07;;;;;;;;;;;20.80;94.80;;;;;;5033128;28;19913;-69
2022/10/08 09:07:37;;;;;;;;;;;21.60;93.40;;;;;;5033520;28;19995;-68
2022/10/08 09:10:08;;;;;;;;;;;22.30;92.20;;;;;;5031813;28;20273;-69
2022/10/08 09:12:38;;;;;;;;;;;22.90;90.50;;;;;;5033602;28;20440;-68
2022/10/08 09:15:04;;;;;;;;;;;23.30;90.10;;;;;;5033096;28;20420;-69
2022/10/08 09:17:38;;;;;;;;;;;23.80;89.10;;;;;;5032568;28;19932;-68
2022/10/08 09:20:03;;;;;;;;;;;24.20;86.60;;;;;;5033738;28;19905;-68
2022/10/08 09:22:33;;;;;;;;;;;24.50;86.00;;;;;;5032817;28;19924;-68
2022/10/08 09:25:00;;;;;;;;;;;24.60;85.10;;;;;;5033061;28;19927;-68
2022/10/08 09:27:41;;;;;;;;;;;24.50;84.90;;;;;;5013748;28;20379;-68
2022/10/08 09:30:25;;;;;;;;;;;24.50;85.30;;;;;;5019186;28;19909;-69
2022/10/08 09:32:54;;;;;;;;;;;24.80;84.90;;;;;;5033084;28;19909;-68
2022/10/08 09:35:20;;;;;;;;;;;24.90;83.90;;;;;;5032699;28;19915;-68
2022/10/08 09:37:46;;;;;;;;;;;24.50;83.80;;;;;;5033359;28;20044;-68
2022/10/08 09:40:12;;;;;;;;;;;24.30;83.20;;;;;;5032761;28;19909;-68
2022/10/08 09:42:37;;;;;;;;;;;24.40;83.10;;;;;;5032518;28;19921;-68
2022/10/08 09:45:23;;;;;;;;;;;24.60;83.40;;;;;;5032741;28;20365;-68
2022/10/08 09:48:08;;;;;;;;;;;25.00;83.70;;;;;;5032836;28;19964;-68
2022/10/08 09:50:35;;;;;;;;;;;25.60;82.70;;;;;;5012825;28;19909;-68
2022/10/08 09:53:00;;;;;;;;;;;25.60;81.60;;;;;;5014278;28;19947;-68
2022/10/08 09:55:30;;;;;;;;;;;25.10;81.70;;;;;;5032992;28;19909;-68
2022/10/08 09:57:59;;;;;;;;;;;24.70;82.50;;;;;;5032813;28;19932;-69
2022/10/08 10:00:29;;;;;;;;;;;24.40;82.10;;;;;;5032735;28;19948;-68
2022/10/08 10:02:56;;;;;;;;;;;24.50;82.20;;;;;;5032598;28;19913;-69
2022/10/08 10:05:23;;;;;;;;;;;24.80;80.50;;;;;;5032477;28;19909;-69
2022/10/08 10:07:49;;;;;;;;;;;25.10;78.20;;;;;;5032598;28;19913;-69
2022/10/08 10:10:22;;;;;;;;;;;24.90;78.10;;;;;;5032607;28;19909;-69
2022/10/08 10:12:51;;;;;;;;;;;25.00;77.60;;;;;;5032569;28;20008;-68
2022/10/08 10:15:19;;;;;;;;;;;24.70;78.70;;;;;;5031858;28;20270;-69
2022/10/08 10:17:55;;;;;;;;;;;24.90;79.10;;;;;;5027284;28;19909;-69
2022/10/08 10:20:41;;;;;;;;;;;25.10;78.40;;;;;;5031745;28;19913;-69
2022/10/08 10:23:16;;;;;;;;;;;25.20;77.90;;;;;;5032590;28;20015;-69
2022/10/08 10:25:49;;;;;;;;;;;25.30;78.50;;;;;;5032729;28;19919;-69
2022/10/08 10:28:17;;;;;;;;;;;25.20;78.50;;;;;;5032829;28;20011;-69
2022/10/08 10:30:49;;;;;;;;;;;25.30;78.30;;;;;;5032101;28;19913;-69
2022/10/08 10:33:27;;;;;;;;;;;25.70;78.10;;;;;;5032709;28;19905;-69
2022/10/08 10:35:55;;;;;;;;;;;26.10;77.50;;;;;;5032036;28;19916;-69
2022/10/08 10:38:26;;;;;;;;;;;26.30;75.70;;;;;;5032798;28;20410;-69
2022/10/08 10:41:01;;;;;;;;;;;26.20;77.20;;;;;;5032541;28;19905;-69
2022/10/08 10:43:43;;;;;;;;;;;26.50;76.30;;;;;;5032098;28;19917;-68
2022/10/08 10:46:26;;;;;;;;;;;26.30;76.30;;;;;;5023195;28;19928;-69
2022/10/08 10:48:52;;;;;;;;;;;26.50;76.10;;;;;;5032432;28;19905;-68
2022/10/08 10:51:26;;;;;;;;;;;26.70;75.50;;;;;;5032636;28;19905;-69
2022/10/08 10:54:15;;;;;;;;;;;26.60;75.00;;;;;;5032483;28;19905;-68
2022/10/08 10:56:52;;;;;;;;;;;26.60;75.60;;;;;;5032185;28;19958;-69
2022/10/08 10:59:21;;;;;;;;;;;26.80;75.20;;;;;;5031127;28;19916;-69
2022/10/08 11:01:57;;;;;;;;;;;27.00;74.30;;;;;;5032150;28;19913;-69
2022/10/08 11:04:22;;;;;;;;;;;26.70;74.50;;;;;;5032440;28;19909;-69
2022/10/08 11:06:56;;;;;;;;;;;26.20;75.60;;;;;;5032101;28;19905;-69
2022/10/08 11:09:39;;;;;;;;;;;26.00;76.00;;;;;;5031998;28;19916;-69
2022/10/08 11:12:23;;;;;;;;;;;25.80;76.30;;;;;;5031920;28;19924;-69
2022/10/08 11:14:49;;;;;;;;;;;25.30;78.50;;;;;;5034776;28;19905;-69
2022/10/08 11:17:33;;;;;;;;;;;25.10;79.00;;;;;;5035772;28;20263;-69
2022/10/08 11:20:23;;;;;;;;;;;24.60;79.70;;;;;;5035778;28;19905;-69
2022/10/08 11:22:49;;;;;;;;;;;23.70;81.10;;;;;;5035411;28;19917;-69
2022/10/08 11:25:19;;;;;;;;;;;23.10;83.30;;;;;;5035376;28;20375;-69
2022/10/08 11:27:48;;;;;;;;;;;22.70;84.80;;;;;;5035913;28;19948;-69
2022/10/08 11:30:16;;;;;;;;;;;22.60;86.60;;;;;;5038620;28;20007;-69
2022/10/08 11:32:49;;;;;;;;;;;22.60;86.90;;;;;;5042958;28;19912;-68
2022/10/08 11:35:18;;;;;;;;;;;22.30;88.20;;;;;;5046189;28;19940;-69
2022/10/08 11:37:54;;;;;;;;;;;22.00;88.90;;;;;;5054202;28;19912;-68
2022/10/08 11:40:25;;;;;;;;;;;22.00;88.10;;;;;;5042780;28;20286;-68
2022/10/08 11:43:11;;;;;;;;;;;21.70;88.30;;;;;;5034685;28;19968;-67
2022/10/08 11:45:38;;;;;;;;;;;21.60;90.10;;;;;;5034178;28;19909;-68
2022/10/08 11:48:23;;;;;;;;;;;22.20;90.00;;;;;;5035197;28;19938;-69
2022/10/08 11:50:48;;;;;;;;;;;23.30;87.00;;;;;;5036046;28;19967;-69
2022/10/08 11:53:21;;;;;;;;;;;23.80;85.80;;;;;;5042791;28;20358;-69
2022/10/08 11:55:48;;;;;;;;;;;23.70;85.60;;;;;;5034217;28;20431;-69
2022/10/08 11:58:20;;;;;;;;;;;23.90;84.90;;;;;;5038264;28;20354;-69
2022/10/08 12:00:45;;;;;;;;;;;23.80;84.50;;;;;;5039189;28;19909;-69
2022/10/08 12:03:23;;;;;;;;;;;23.70;84.10;;;;;;5033854;28;19921;-69
2022/10/08 12:05:51;;;;;;;;;;;23.40;84.70;;;;;;5034770;28;19962;-69
2022/10/08 12:08:35;;;;;;;;;;;23.50;84.80;;;;;;5032710;28;19927;-68
2022/10/08 12:11:19;;;;;;;;;;;23.80;84.60;;;;;;5033930;28;20351;-69
2022/10/08 12:14:04;;;;;;;;;;;24.20;83.90;;;;;;5034163;28;19909;-69
2022/10/08 12:16:48;;;;;;;;;;;25.00;83.20;;;;;;5034387;28;19905;-69
2022/10/08 12:19:35;;;;;;;;;;;25.30;81.90;;;;;;5037096;28;20433;-68
2022/10/08 12:22:16;;;;;;;;;;;25.20;81.10;;;;;;5031324;28;19983;-69
2022/10/08 12:24:45;;;;;;;;;;;25.00;81.00;;;;;;5033218;28;19944;-70
2022/10/08 12:27:16;;;;;;;;;;;25.00;81.10;;;;;;5032727;28;19913;-69
2022/10/08 12:30:02;;;;;;;;;;;24.80;80.20;;;;;;5034041;28;19905;-69
2022/10/08 12:32:32;;;;;;;;;;;24.50;80.30;;;;;;5033405;28;19920;-69
2022/10/08 12:34:58;;;;;;;;;;;24.40;80.60;;;;;;5031426;28;20362;-68
2022/10/08 12:37:29;;;;;;;;;;;24.10;79.80;;;;;;5032918;28;20306;-68
2022/10/08 12:39:56;;;;;;;;;;;23.80;81.10;;;;;;5027053;28;19996;-68
2022/10/08 12:42:24;;;;;;;;;;;23.80;81.30;;;;;;5032436;28;19913;-68
2022/10/08 12:44:52;;;;;;;;;;;23.60;80.90;;;;;;5033184;28;20007;-68
2022/10/08 12:47:36;;;;;;;;;;;23.40;82.00;;;;;;5033695;28;19913;-68
2022/10/08 12:50:20;;;;;;;;;;;23.20;82.60;;;;;;5032555;28;19915;-68
2022/10/08 12:52:46;;;;;;;;;;;23.20;82.50;;;;;;5033535;28;19992;-68
2022/10/08 12:55:16;;;;;;;;;;;23.10;82.70;;;;;;5033783;28;19948;-68
2022/10/08 12:57:42;;;;;;;;;;;22.90;83.60;;;;;;5033582;28;19909;-68
2022/10/08 13:00:17;;;;;;;;;;;22.70;83.30;;;;;;5033113;28;19920;-68
2022/10/08 13:02:42;;;;;;;;;;;22.40;83.60;;;;;;5032823;28;19917;-68
2022/10/08 13:05:25;;;;;;;;;;;22.20;84.80;;;;;;5033543;28;19909;-68
2022/10/08 13:07:50;;;;;;;;;;;22.10;85.60;;;;;;5033157;28;20358;-68
2022/10/08 13:10:18;;;;;;;;;;;21.80;85.70;;;;;;5033116;28;19928;-68
2022/10/08 13:12:56;;;;;;;;;;;21.70;86.40;;;;;;5033019;28;19928;-68
2022/10/08 13:15:23;;;;;;;;;;;21.50;86.50;;;;;;5033535;28;19913;-67
2022/10/08 13:17:49;;;;;;;;;;;21.20;87.20;;;;;;5033539;28;19937;-68
2022/10/08 13:20:16;;;;;;;;;;;20.90;88.20;;;;;;5032344;28;19963;-67
2022/10/08 13:22:42;;;;;;;;;;;20.80;89.40;;;;;;5033231;28;19913;-67
2022/10/08 13:25:26;;;;;;;;;;;20.70;89.00;;;;;;5027852;28;19971;-68
2022/10/08 13:28:07;;;;;;;;;;;20.50;89.90;;;;;;5039556;28;19912;-68
2022/10/08 13:30:33;;;;;;;;;;;20.50;89.50;;;;;;5039458;28;19998;-67
2022/10/08 13:33:10;;;;;;;;;;;20.50;88.70;;;;;;5036886;28;20338;-69
2022/10/08 13:35:35;;;;;;;;;;;20.40;89.30;;;;;;5028629;28;20343;-68
2022/10/08 13:38:05;;;;;;;;;;;20.30;90.00;;;;;;5032551;28;19928;-67
2022/10/08 13:40:31;;;;;;;;;;;20.20;90.20;;;;;;5030573;28;19994;-70
2022/10/08 13:42:59;;;;;;;;;;;20.10;90.60;;;;;;5032912;28;20013;-68
2022/10/08 13:45:26;;;;;;;;;;;20.00;90.80;;;;;;5028215;28;20468;-68
2022/10/08 13:47:51;;;;;;;;;;;19.80;91.70;;;;;;5029914;28;19904;-68
2022/10/08 13:50:17;;;;;;;;;;;19.80;91.00;;;;;;5032972;28;19909;-68
2022/10/08 13:52:45;;;;;;;;;;;19.60;91.00;;;;;;5032802;28;20436;-67
2022/10/08 13:55:21;;;;;;;;;;;19.50;91.20;;;;;;5033164;28;19906;-69
2022/10/08 13:57:46;;;;;;;;;;;19.40;91.30;;;;;;5032962;28;19951;-67
2022/10/08 14:00:13;;;;;;;;;;;19.40;91.40;;;;;;5032867;28;19912;-68
2022/10/08 14:02:38;;;;;;;;;;;19.30;91.70;;;;;;5032677;28;19919;-68
2022/10/08 14:05:04;;;;;;;;;;;19.20;92.10;;;;;;5031329;28;19913;-69
2022/10/08 14:07:31;;;;;;;;;;;19.10;92.20;;;;;;5032772;28;20003;-69
2022/10/08 14:09:57;;;;;;;;;;;19.10;91.90;;;;;;5032642;28;19905;-69
2022/10/08 14:12:28;;;;;;;;;;;18.90;92.00;;;;;;5032673;28;19917;-69
2022/10/08 14:14:54;;;;;;;;;;;18.90;92.50;;;;;;5033056;28;19920;-69
2022/10/08 14:17:20;;;;;;;;;;;18.80;92.40;;;;;;5030300;28;19917;-70
2022/10/08 14:19:45;;;;;;;;;;;18.70;92.60;;;;;;5029210;28;19912;-68
2022/10/08 14:22:11;;;;;;;;;;;18.70;93.00;;;;;;5030754;28;20002;-69
2022/10/08 14:24:37;;;;;;;;;;;18.70;93.10;;;;;;5032366;28;19905;-69
2022/10/08 14:27:02;;;;;;;;;;;18.70;93.30;;;;;;5032223;28;19908;-69
2022/10/08 14:29:28;;;;;;;;;;;18.80;93.10;;;;;;5032947;28;19905;-70
2022/10/08 14:31:54;;;;;;;;;;;18.80;93.40;;;;;;5032724;28;19913;-68